Terminal Aerodrome Forecast
Issued by NWS

Home | Current Version | Previous Version | Text Only | Print | Product List | Glossary On
Versions: 1 2 3 4 5 6 7 8 9 10 11 12 13 14 15 16 17 18 19 20 21 22 23
000
FTUS46 KSEW 190500
TAFSEA
TAF
KSEA 190520Z 1906/2012 05006KT P6SM SCT050 SCT200
     FM190800 04006KT P6SM SCT050 BKN100
     FM191400 15006KT P6SM SCT050 BKN100
     FM191800 18008KT P6SM -RA BKN050 BKN080
     FM192000 21015G25KT P6SM -RA OVC045
     FM192200 21015G25KT P6SM -SHRA BKN040 OVC060
     FM200600 20012KT P6SM VCSH BKN040 BKN060=

USA.gov is the U.S. government's official web portal to all federal, state and local government web resources and services.